Time;durP1;ratioP1;P1;durP2;ratioP2;P2;SDS_P1;SDS_P2;PMS_P1;PMS_P2;Temp;Humidity;BMP_temperature;BMP_pressure;BME280_temperature;BME280_humidity;BME280_pressure;Samples;Min_cycle;Max_cycle;Signal;HPM_P1;HPM_P2
2022/11/17 00:01:23;;;;;;;3.70;3.33;;;7.50;99.90;;;;;;5037176;28;20224;-65
2022/11/17 00:03:52;;;;;;;5.33;3.60;;;7.40;99.90;;;;;;5036473;28;20316;-65
2022/11/17 00:06:20;;;;;;;4.40;3.20;;;7.50;99.90;;;;;;5030666;28;20319;-65
2022/11/17 00:08:47;;;;;;;5.20;3.60;;;7.40;99.90;;;;;;5046097;28;20687;-65
2022/11/17 00:11:14;;;;;;;4.43;3.23;;;7.50;99.90;;;;;;5032187;28;21042;-65
2022/11/17 00:16:26;;;;;;;5.43;3.53;;;7.40;99.90;;;;;;5038336;28;21045;-65
2022/11/17 00:21:39;;;;;;;3.93;3.50;;;7.40;99.90;;;;;;5037198;28;20711;-65
2022/11/17 00:24:06;;;;;;;4.30;3.33;;;7.40;99.90;;;;;;5049708;28;20647;-65
2022/11/17 00:27:00;;;;;;;3.37;2.97;;;7.40;99.90;;;;;;5010893;28;21060;-65
2022/11/17 00:29:22;;;;;;;5.87;3.00;;;7.40;99.90;;;;;;5033797;28;20207;-65
2022/11/17 00:34:35;;;;;;;4.73;2.97;;;7.30;99.90;;;;;;5044821;28;20261;-65
2022/11/17 00:37:02;;;;;;;4.10;2.90;;;7.40;99.90;;;;;;5037778;28;20311;-65
2022/11/17 00:39:28;;;;;;;4.77;3.00;;;7.30;99.90;;;;;;5047529;28;20228;-65
2022/11/17 00:41:55;;;;;;;3.60;2.77;;;7.30;99.90;;;;;;5025700;28;20205;-65
2022/11/17 00:44:22;;;;;;;4.13;3.40;;;7.30;99.90;;;;;;5019106;28;20645;-65
2022/11/17 00:46:49;;;;;;;3.50;2.80;;;7.20;99.90;;;;;;5035579;28;20311;-64
2022/11/17 00:49:16;;;;;;;4.03;2.97;;;7.20;99.90;;;;;;5030906;28;20393;-64
2022/11/17 00:51:44;;;;;;;3.00;2.67;;;7.20;99.90;;;;;;5037580;28;23032;-64
2022/11/17 00:54:14;;;;;;;3.33;2.63;;;7.20;99.90;;;;;;5049526;28;21017;-64
2022/11/17 00:56:41;;;;;;;3.07;2.67;;;7.20;99.90;;;;;;5003476;28;20208;-65
2022/11/17 00:59:08;;;;;;;2.77;2.53;;;7.20;99.90;;;;;;5047593;28;21077;-64
2022/11/17 01:01:35;;;;;;;3.77;2.83;;;7.20;99.90;;;;;;5026972;28;20343;-64
2022/11/17 01:04:02;;;;;;;2.57;2.17;;;7.20;99.90;;;;;;5038834;28;20205;-64
2022/11/17 01:06:31;;;;;;;2.67;2.30;;;7.20;99.90;;;;;;5040675;28;20248;-65
2022/11/17 01:09:00;;;;;;;3.47;2.53;;;7.20;99.90;;;;;;5038682;28;20689;-64
2022/11/17 01:11:27;;;;;;;2.93;2.23;;;7.10;99.90;;;;;;5017643;28;20233;-65
2022/11/17 01:13:56;;;;;;;2.30;2.10;;;7.10;99.90;;;;;;5027698;28;20326;-64
2022/11/17 01:16:24;;;;;;;2.97;2.53;;;7.10;99.90;;;;;;5035190;28;20318;-64
2022/11/17 01:18:53;;;;;;;2.43;2.10;;;7.10;99.90;;;;;;5029045;28;20295;-64
2022/11/17 01:21:22;;;;;;;3.93;2.47;;;7.10;99.90;;;;;;5032691;28;20346;-64
2022/11/17 01:23:50;;;;;;;2.13;1.93;;;7.10;99.90;;;;;;5031319;28;20304;-64
2022/11/17 01:26:21;;;;;;;2.00;1.80;;;7.10;99.90;;;;;;5048377;28;20219;-64
2022/11/17 01:28:48;;;;;;;2.67;1.97;;;7.10;99.90;;;;;;5006065;28;20262;-64
2022/11/17 01:31:17;;;;;;;2.17;1.63;;;7.10;99.90;;;;;;5032343;28;20238;-64
2022/11/17 01:33:45;;;;;;;2.20;1.77;;;7.10;99.90;;;;;;5026243;28;20785;-64
2022/11/17 01:36:14;;;;;;;2.27;1.97;;;7.10;99.90;;;;;;5042187;28;20280;-64
2022/11/17 01:38:41;;;;;;;2.20;2.00;;;7.10;99.90;;;;;;5036119;28;20278;-64
2022/11/17 01:41:14;;;;;;;1.60;1.40;;;7.10;99.90;;;;;;5034232;28;20235;-64
2022/11/17 01:43:43;;;;;;;3.60;2.13;;;7.10;99.90;;;;;;5009088;28;20685;-64
2022/11/17 01:46:20;;;;;;;1.83;1.73;;;7.10;99.90;;;;;;5034455;28;20303;-63
2022/11/17 01:48:49;;;;;;;2.20;2.00;;;7.10;99.90;;;;;;5027327;28;20205;-64
2022/11/17 01:51:17;;;;;;;2.10;1.90;;;7.10;99.90;;;;;;5032601;28;20228;-64
2022/11/17 01:53:45;;;;;;;2.00;1.80;;;7.10;99.90;;;;;;5039064;28;20342;-64
2022/11/17 01:56:16;;;;;;;2.60;2.13;;;7.10;99.90;;;;;;5025837;28;21247;-65
2022/11/17 01:58:50;;;;;;;2.40;1.80;;;7.10;99.90;;;;;;5000912;28;20212;-64
2022/11/17 02:01:16;;;;;;;2.63;2.23;;;7.10;99.90;;;;;;5044474;28;20315;-64
2022/11/17 02:03:45;;;;;;;2.33;1.83;;;7.10;99.90;;;;;;5034294;28;20211;-64
2022/11/17 02:06:18;;;;;;;2.80;1.93;;;7.10;99.90;;;;;;5033713;28;21269;-67
2022/11/17 02:08:48;;;;;;;2.70;2.30;;;7.10;99.90;;;;;;5039243;28;20424;-65
2022/11/17 02:11:19;;;;;;;5.23;2.50;;;7.10;99.90;;;;;;5035776;28;20684;-64
2022/11/17 02:13:47;;;;;;;2.50;1.97;;;7.10;99.90;;;;;;5016786;28;20235;-64
2022/11/17 02:16:16;;;;;;;2.30;2.00;;;7.10;99.90;;;;;;5044336;28;20580;-64
2022/11/17 02:18:45;;;;;;;2.60;2.00;;;7.10;99.90;;;;;;5044874;28;20312;-64
2022/11/17 02:21:48;;;;;;;2.27;2.07;;;7.10;99.90;;;;;;5030164;28;22345;-64
2022/11/17 02:24:40;;;;;;;2.30;1.97;;;7.10;99.90;;;;;;5049822;28;20287;-64
2022/11/17 02:27:32;;;;;;;2.43;1.97;;;7.10;99.90;;;;;;5037947;28;20267;-64
2022/11/17 02:30:03;;;;;;;2.80;2.00;;;7.10;99.90;;;;;;4999709;28;21117;-64
2022/11/17 02:32:36;;;;;;;3.50;2.00;;;7.10;99.90;;;;;;5048578;28;20297;-64
2022/11/17 02:35:14;;;;;;;2.30;2.00;;;7.10;99.90;;;;;;5036911;28;20342;-64
2022/11/17 02:37:51;;;;;;;2.57;2.33;;;7.10;99.90;;;;;;5035939;28;20670;-64
2022/11/17 02:40:24;;;;;;;3.27;2.60;;;7.10;99.90;;;;;;5047292;28;20290;-65
2022/11/17 02:45:48;;;;;;;2.90;2.40;;;7.10;99.90;;;;;;5018541;28;20349;-65
2022/11/17 02:48:22;;;;;;;6.60;2.60;;;7.10;99.90;;;;;;5043827;28;20237;-64
2022/11/17 02:50:51;;;;;;;3.93;2.80;;;7.10;99.90;;;;;;5030496;28;20343;-64
2022/11/17 02:53:19;;;;;;;2.90;2.60;;;7.10;99.90;;;;;;5037983;28;20321;-64
2022/11/17 02:55:50;;;;;;;6.33;2.83;;;7.10;99.90;;;;;;5032413;28;20314;-64
2022/11/17 02:58:19;;;;;;;4.20;2.87;;;7.10;99.90;;;;;;5031040;28;20336;-64
2022/11/17 03:00:55;;;;;;;4.07;3.07;;;7.00;99.90;;;;;;5016051;28;20347;-64
2022/11/17 03:03:36;;;;;;;4.00;3.27;;;7.00;99.90;;;;;;5031773;28;20834;-64
2022/11/17 03:06:14;;;;;;;3.63;2.90;;;7.00;99.90;;;;;;5043381;28;20643;-64
2022/11/17 03:08:50;;;;;;;2.90;2.60;;;7.00;99.90;;;;;;5032159;28;20200;-64
2022/11/17 03:11:22;;;;;;;5.23;2.90;;;7.00;99.90;;;;;;5036828;28;20339;-63
2022/11/17 03:14:02;;;;;;;4.27;3.10;;;7.00;99.90;;;;;;5040083;28;20255;-64
2022/11/17 03:16:34;;;;;;;5.47;3.33;;;7.00;99.90;;;;;;5017660;28;20344;-64
2022/11/17 03:19:08;;;;;;;4.67;3.47;;;7.00;99.90;;;;;;5036043;28;20773;-64
2022/11/17 03:21:39;;;;;;;2.57;2.37;;;7.10;99.90;;;;;;5031702;28;20236;-64
2022/11/17 03:24:12;;;;;;;3.93;3.47;;;7.00;99.90;;;;;;5049319;28;20224;-64
2022/11/17 03:26:45;;;;;;;4.83;3.50;;;7.00;99.90;;;;;;5047228;28;20387;-64
2022/11/17 03:29:17;;;;;;;4.30;3.10;;;7.00;99.90;;;;;;5036003;28;20836;-64
2022/11/17 03:31:47;;;;;;;4.97;3.20;;;7.00;99.90;;;;;;5012943;28;20237;-64
2022/11/17 03:34:17;;;;;;;4.47;3.30;;;7.00;99.90;;;;;;5033643;28;20225;-64
2022/11/17 03:36:47;;;;;;;4.23;3.30;;;7.00;99.90;;;;;;5036718;28;20223;-64
2022/11/17 03:39:19;;;;;;;6.40;3.70;;;7.00;99.90;;;;;;5036260;28;20315;-64
2022/11/17 03:41:49;;;;;;;5.27;3.77;;;7.00;99.90;;;;;;5037686;28;20327;-65
2022/11/17 03:44:20;;;;;;;4.83;3.53;;;6.90;99.90;;;;;;5039385;28;20313;-64
2022/11/17 03:46:53;;;;;;;4.07;3.43;;;7.00;99.90;;;;;;5019919;28;20338;-64
2022/11/17 03:49:29;;;;;;;5.53;3.67;;;6.90;99.90;;;;;;5025614;28;21340;-64
2022/11/17 03:51:57;;;;;;;6.20;4.00;;;7.00;99.90;;;;;;5052028;28;20338;-64
2022/11/17 03:54:24;;;;;;;7.87;3.90;;;7.00;99.90;;;;;;5035384;28;20319;-64
2022/11/17 03:56:57;;;;;;;7.07;4.53;;;7.00;99.90;;;;;;5022978;28;20211;-64
2022/11/17 03:59:31;;;;;;;5.40;4.17;;;6.90;99.90;;;;;;5040588;28;21037;-64
2022/11/17 04:01:59;;;;;;;6.90;4.67;;;6.90;99.90;;;;;;5017907;28;20370;-64
2022/11/17 04:05:04;;;;;;;9.67;4.60;;;6.90;99.90;;;;;;5045908;28;20247;-64
2022/11/17 04:07:14;;;;;;;5.83;4.13;;;6.90;99.90;;;;;;5046571;28;20229;-64
2022/11/17 04:09:40;;;;;;;4.73;3.73;;;6.90;99.90;;;;;;5023361;28;20433;-64
2022/11/17 04:17:38;;;;;;;5.47;4.03;;;6.80;99.90;;;;;;5015939;28;20215;-64
2022/11/17 04:20:06;;;;;;;9.37;5.23;;;6.80;99.90;;;;;;5053473;28;20287;-64
2022/11/17 04:22:33;;;;;;;6.13;4.60;;;6.80;99.90;;;;;;5051064;28;20284;-64
2022/11/17 04:25:00;;;;;;;6.20;4.43;;;6.90;99.90;;;;;;5041598;28;20308;-64
2022/11/17 04:30:13;;;;;;;7.53;5.03;;;6.80;99.90;;;;;;5034702;28;20212;-64
2022/11/17 04:32:42;;;;;;;7.23;4.50;;;6.80;99.90;;;;;;4999952;28;21444;-64
2022/11/17 04:35:09;;;;;;;5.73;4.30;;;6.80;99.90;;;;;;5049096;28;20670;-63
2022/11/17 04:37:35;;;;;;;5.73;4.20;;;6.80;99.90;;;;;;5021280;28;20939;-64
2022/11/17 04:40:03;;;;;;;5.23;3.77;;;6.80;99.90;;;;;;5020742;28;20850;-64
2022/11/17 04:42:29;;;;;;;5.63;3.77;;;6.70;99.90;;;;;;5034475;28;20200;-64
2022/11/17 04:44:56;;;;;;;5.80;4.17;;;6.80;99.90;;;;;;5037407;28;20218;-64
2022/11/17 04:47:24;;;;;;;7.47;4.73;;;6.70;99.90;;;;;;5023289;28;20291;-64
2022/11/17 04:49:51;;;;;;;8.17;4.93;;;6.70;99.90;;;;;;5017111;28;20410;-64
2022/11/17 04:52:18;;;;;;;8.37;5.17;;;6.80;99.90;;;;;;5038365;28;20295;-64
2022/11/17 04:54:45;;;;;;;8.23;5.73;;;6.70;99.90;;;;;;5027592;28;20274;-64
2022/11/17 04:57:11;;;;;;;12.20;6.07;;;6.70;99.90;;;;;;5030146;28;21245;-64
2022/11/17 04:59:38;;;;;;;7.67;5.63;;;6.70;99.90;;;;;;5030272;28;20358;-64
2022/11/17 05:02:05;;;;;;;8.53;6.13;;;6.60;99.90;;;;;;5029986;28;20639;-64
2022/11/17 05:07:18;;;;;;;9.10;6.10;;;6.60;99.90;;;;;;5011939;28;20631;-63
2022/11/17 05:09:45;;;;;;;9.07;5.90;;;6.60;99.90;;;;;;5021609;28;20464;-64
2022/11/17 05:14:56;;;;;;;9.27;5.80;;;6.60;99.90;;;;;;5024455;28;20290;-64
2022/11/17 05:17:23;;;;;;;8.77;6.43;;;6.50;99.90;;;;;;5014798;28;20221;-64
2022/11/17 05:19:51;;;;;;;9.10;6.17;;;6.60;99.90;;;;;;5042376;28;20290;-63
2022/11/17 05:25:05;;;;;;;7.30;5.43;;;6.50;99.90;;;;;;5031156;28;20745;-64
2022/11/17 05:27:33;;;;;;;8.60;6.00;;;6.50;99.90;;;;;;5026883;28;21517;-64
2022/11/17 05:30:00;;;;;;;7.97;5.60;;;6.50;99.90;;;;;;5008210;28;20387;-64
2022/11/17 05:32:27;;;;;;;8.83;5.80;;;6.50;99.90;;;;;;5042762;28;20302;-63
2022/11/17 05:34:55;;;;;;;7.67;5.70;;;6.50;99.90;;;;;;5032017;28;20323;-63
2022/11/17 05:37:22;;;;;;;10.97;6.47;;;6.50;99.90;;;;;;5007926;28;20585;-64
2022/11/17 05:39:48;;;;;;;9.57;6.30;;;6.50;99.90;;;;;;5040326;28;20320;-63
2022/11/17 05:42:15;;;;;;;16.67;6.43;;;6.50;99.90;;;;;;5036013;28;20855;-64
2022/11/17 05:44:42;;;;;;;10.20;6.57;;;6.50;99.90;;;;;;5019502;28;20312;-63
2022/11/17 05:47:09;;;;;;;9.87;7.10;;;6.50;99.90;;;;;;5023206;28;20780;-63
2022/11/17 05:49:36;;;;;;;8.47;5.77;;;6.50;99.90;;;;;;5013409;28;20269;-62
2022/11/17 05:52:04;;;;;;;9.87;6.43;;;6.40;99.90;;;;;;5003091;28;20231;-64
2022/11/17 05:54:32;;;;;;;9.33;5.73;;;6.40;99.90;;;;;;5034531;28;20453;-63
2022/11/17 05:57:02;;;;;;;9.47;6.07;;;6.40;99.90;;;;;;5032673;28;21483;-63
2022/11/17 05:59:34;;;;;;;8.73;5.90;;;6.40;99.90;;;;;;5014404;28;20315;-64
2022/11/17 06:02:06;;;;;;;9.50;6.37;;;6.40;99.90;;;;;;5013432;28;21567;-63
2022/11/17 06:04:34;;;;;;;8.00;6.10;;;6.40;99.90;;;;;;5027866;28;20315;-63
2022/11/17 06:07:01;;;;;;;9.27;6.43;;;6.40;99.90;;;;;;4996205;28;20246;-64
2022/11/17 06:09:32;;;;;;;7.37;5.57;;;6.40;99.90;;;;;;5028226;28;20347;-63
2022/11/17 06:11:59;;;;;;;9.90;6.37;;;6.30;99.90;;;;;;5038300;28;20216;-64
2022/11/17 06:14:26;;;;;;;9.43;6.10;;;6.30;99.90;;;;;;5033907;28;20321;-63
2022/11/17 06:17:00;;;;;;;9.67;6.43;;;6.40;99.90;;;;;;5028390;28;20263;-65
2022/11/17 06:19:31;;;;;;;11.23;6.57;;;6.20;99.90;;;;;;5037443;28;20318;-64
2022/11/17 06:21:59;;;;;;;11.13;6.63;;;6.20;99.90;;;;;;4992247;28;20346;-64
2022/11/17 06:24:27;;;;;;;9.07;6.40;;;6.20;99.90;;;;;;5046325;28;20248;-64
2022/11/17 06:26:55;;;;;;;11.87;6.90;;;6.10;99.90;;;;;;5045600;28;20631;-64
2022/11/17 06:29:22;;;;;;;12.73;7.23;;;6.20;99.90;;;;;;5052143;28;20291;-64
2022/11/17 06:31:49;;;;;;;12.97;7.47;;;6.20;99.90;;;;;;5026761;28;20231;-64
2022/11/17 06:34:16;;;;;;;13.30;8.07;;;6.20;99.90;;;;;;5050469;28;20260;-64
2022/11/17 06:36:43;;;;;;;10.60;7.33;;;6.10;99.90;;;;;;5037708;28;20383;-64
2022/11/17 06:39:09;;;;;;;11.63;7.37;;;6.10;99.90;;;;;;5020166;28;20237;-64
2022/11/17 06:41:38;;;;;;;11.23;7.33;;;6.10;99.90;;;;;;5049088;28;20688;-63
2022/11/17 06:44:06;;;;;;;10.20;7.13;;;6.10;99.90;;;;;;5035100;28;20203;-64
2022/11/17 06:46:37;;;;;;;13.53;7.97;;;6.10;99.90;;;;;;5027104;28;20239;-64
2022/11/17 06:49:05;;;;;;;12.43;7.43;;;6.10;99.90;;;;;;5045025;28;20199;-64
2022/11/17 06:51:32;;;;;;;10.27;7.53;;;6.00;99.90;;;;;;5029112;28;20931;-64
2022/11/17 06:53:59;;;;;;;14.77;8.07;;;6.10;99.90;;;;;;5021505;28;20688;-63
2022/11/17 06:56:27;;;;;;;12.90;7.67;;;6.00;99.90;;;;;;5046994;28;20297;-64
2022/11/17 06:58:55;;;;;;;12.53;8.17;;;6.00;99.90;;;;;;5049944;28;20313;-63
2022/11/17 07:01:23;;;;;;;12.63;8.47;;;6.00;99.90;;;;;;5030151;28;20268;-64
2022/11/17 07:03:50;;;;;;;13.70;8.27;;;6.00;99.90;;;;;;5041151;28;20224;-63
2022/11/17 07:06:18;;;;;;;14.60;8.87;;;5.90;99.90;;;;;;5035113;28;20220;-64
2022/11/17 07:08:45;;;;;;;13.20;7.60;;;5.90;99.90;;;;;;4990968;28;20217;-64
2022/11/17 07:11:15;;;;;;;12.43;8.50;;;5.80;99.90;;;;;;5040142;28;20350;-63
2022/11/17 07:13:42;;;;;;;13.63;9.03;;;5.90;99.90;;;;;;5022689;28;20386;-63
2022/11/17 07:16:10;;;;;;;11.43;8.10;;;6.00;99.90;;;;;;5037748;28;20718;-63
2022/11/17 07:18:40;;;;;;;16.30;8.03;;;5.90;99.90;;;;;;5038505;28;20205;-64
2022/11/17 07:21:09;;;;;;;15.40;8.70;;;5.80;99.90;;;;;;5053539;28;20723;-63
2022/11/17 07:23:37;;;;;;;11.63;8.17;;;5.90;99.90;;;;;;5009901;28;20222;-63
2022/11/17 07:26:04;;;;;;;11.87;8.40;;;5.70;99.90;;;;;;5045841;28;20224;-63
2022/11/17 07:28:33;;;;;;;12.03;8.17;;;5.80;99.90;;;;;;5033301;28;21856;-64
2022/11/17 07:31:02;;;;;;;11.30;7.93;;;5.80;99.90;;;;;;5051682;28;20193;-63
2022/11/17 07:33:29;;;;;;;12.87;7.60;;;5.80;99.90;;;;;;5027871;28;20223;-64
2022/11/17 07:36:02;;;;;;;13.93;8.43;;;5.80;99.90;;;;;;5051718;28;20351;-63
2022/11/17 07:38:32;;;;;;;10.37;8.07;;;5.80;99.90;;;;;;5019427;28;20294;-64
2022/11/17 07:40:59;;;;;;;14.53;8.30;;;5.80;99.90;;;;;;5053620;28;20197;-63
2022/11/17 07:43:26;;;;;;;13.00;9.23;;;5.80;99.90;;;;;;5048712;28;20254;-63
2022/11/17 07:45:53;;;;;;;14.33;8.50;;;5.70;99.90;;;;;;5043352;28;20312;-64
2022/11/17 07:48:19;;;;;;;15.63;9.20;;;5.70;99.90;;;;;;5033319;28;20317;-63
2022/11/17 07:50:46;;;;;;;13.50;9.10;;;5.70;99.90;;;;;;5047286;28;20299;-63
2022/11/17 07:53:14;;;;;;;11.37;8.30;;;5.70;99.90;;;;;;5053933;28;20192;-63
2022/11/17 07:55:41;;;;;;;15.93;9.60;;;5.70;99.90;;;;;;5020621;28;20506;-63
2022/11/17 07:58:08;;;;;;;12.83;7.83;;;5.60;99.90;;;;;;5049356;28;20292;-63
2022/11/17 08:00:35;;;;;;;13.83;9.40;;;5.70;99.90;;;;;;5037275;28;20296;-63
2022/11/17 08:03:03;;;;;;;14.30;9.10;;;5.70;99.90;;;;;;5039458;28;20681;-64
2022/11/17 08:05:31;;;;;;;11.53;8.63;;;5.70;99.90;;;;;;5034205;28;20342;-64
2022/11/17 08:07:59;;;;;;;12.20;8.50;;;5.60;99.90;;;;;;5049674;28;20270;-63
2022/11/17 08:10:30;;;;;;;15.97;9.23;;;5.60;99.90;;;;;;5022515;28;20769;-64
2022/11/17 08:12:58;;;;;;;12.67;8.43;;;5.60;99.90;;;;;;5049497;28;20254;-64
2022/11/17 08:15:25;;;;;;;15.57;8.50;;;5.60;99.90;;;;;;5041318;28;20893;-64
2022/11/17 08:17:53;;;;;;;12.80;8.10;;;5.60;99.90;;;;;;5037205;28;20300;-63
2022/11/17 08:20:21;;;;;;;12.43;8.57;;;5.60;99.90;;;;;;5040499;28;20210;-63
2022/11/17 08:22:49;;;;;;;13.67;8.87;;;5.60;99.90;;;;;;5047056;28;20294;-63
2022/11/17 08:25:16;;;;;;;14.20;8.80;;;5.60;99.90;;;;;;5032551;28;20648;-64
2022/11/17 08:27:45;;;;;;;13.37;8.40;;;5.60;99.90;;;;;;5028933;28;20292;-63
2022/11/17 08:30:12;;;;;;;12.83;8.10;;;5.60;99.90;;;;;;5037556;28;20670;-63
2022/11/17 08:32:46;;;;;;;15.13;7.77;;;5.60;99.90;;;;;;5036302;28;20292;-63
2022/11/17 08:35:13;;;;;;;13.37;8.27;;;5.50;99.90;;;;;;5036619;28;20219;-63
2022/11/17 08:37:40;;;;;;;10.87;8.43;;;5.50;99.90;;;;;;5035871;28;21115;-64
2022/11/17 08:40:09;;;;;;;12.87;8.13;;;5.50;99.90;;;;;;5050698;28;20300;-64
2022/11/17 08:42:35;;;;;;;10.77;7.83;;;5.50;99.90;;;;;;5012349;28;20303;-63
2022/11/17 08:45:04;;;;;;;10.87;7.40;;;5.50;99.90;;;;;;5051404;28;20310;-63
2022/11/17 08:47:31;;;;;;;11.73;7.40;;;5.50;99.90;;;;;;5037691;28;20331;-64
2022/11/17 08:49:58;;;;;;;11.63;7.93;;;5.50;99.90;;;;;;5040279;28;20229;-63
2022/11/17 08:52:26;;;;;;;10.83;7.30;;;5.50;99.90;;;;;;5038757;28;20733;-63
2022/11/17 08:54:53;;;;;;;11.53;8.23;;;5.50;99.90;;;;;;5044626;28;20410;-64
2022/11/17 08:57:21;;;;;;;11.87;7.70;;;5.50;99.90;;;;;;5041376;28;20204;-64
2022/11/17 08:59:48;;;;;;;13.67;8.10;;;5.50;99.90;;;;;;5033441;28;20224;-64
2022/11/17 09:02:17;;;;;;;11.77;7.43;;;5.50;99.90;;;;;;5051154;28;20734;-64
2022/11/17 09:04:44;;;;;;;13.87;7.83;;;5.50;99.90;;;;;;5040737;28;20328;-63
2022/11/17 09:07:11;;;;;;;11.67;8.07;;;5.40;99.90;;;;;;5028307;28;20290;-64
2022/11/17 09:09:38;;;;;;;9.60;6.77;;;5.50;99.90;;;;;;5048951;28;20208;-63
2022/11/17 09:12:05;;;;;;;9.17;6.77;;;5.50;99.90;;;;;;5031008;28;20330;-63
2022/11/17 09:14:32;;;;;;;10.23;7.37;;;5.50;99.90;;;;;;5014437;28;21583;-64
2022/11/17 09:16:59;;;;;;;9.27;7.00;;;5.50;99.90;;;;;;5040136;28;21277;-63
2022/11/17 09:19:27;;;;;;;9.43;7.17;;;5.50;99.90;;;;;;5026515;28;20828;-64
2022/11/17 09:21:54;;;;;;;11.17;7.20;;;5.50;99.90;;;;;;5025976;28;20360;-64
2022/11/17 09:24:21;;;;;;;11.00;7.03;;;5.40;99.90;;;;;;5051727;28;20196;-64
2022/11/17 09:26:48;;;;;;;9.77;6.60;;;5.40;99.90;;;;;;5049854;28;20736;-63
2022/11/17 09:29:15;;;;;;;8.77;6.90;;;5.40;99.90;;;;;;5021292;28;20264;-63
2022/11/17 09:31:42;;;;;;;10.03;6.73;;;5.30;99.90;;;;;;5044739;28;20300;-64
2022/11/17 09:34:09;;;;;;;9.57;6.63;;;5.50;99.90;;;;;;5052277;28;20289;-64
2022/11/17 09:36:37;;;;;;;8.37;6.23;;;5.50;99.90;;;;;;5022240;28;21006;-64
2022/11/17 09:39:04;;;;;;;10.60;6.53;;;5.40;99.90;;;;;;5051914;28;20288;-63
2022/11/17 09:41:42;;;;;;;10.40;6.60;;;5.40;99.90;;;;;;5048988;28;20202;-64
2022/11/17 09:44:18;;;;;;;9.50;5.90;;;5.50;99.90;;;;;;5050761;28;20291;-64
2022/11/17 09:46:57;;;;;;;8.90;6.10;;;5.60;99.90;;;;;;5031845;28;20713;-63
2022/11/17 09:49:38;;;;;;;8.33;6.60;;;5.50;99.90;;;;;;5044945;28;20211;-64
2022/11/17 09:52:15;;;;;;;10.33;6.63;;;5.50;99.90;;;;;;5035839;28;20274;-64
2022/11/17 09:54:47;;;;;;;8.53;5.90;;;5.50;99.90;;;;;;5029157;28;20670;-64
2022/11/17 09:57:22;;;;;;;10.13;6.17;;;5.50;99.90;;;;;;5048811;28;20766;-63
2022/11/17 09:59:59;;;;;;;11.00;6.20;;;5.50;99.90;;;;;;5044520;28;20306;-63
2022/11/17 10:02:26;;;;;;;9.47;6.33;;;5.50;99.90;;;;;;5011399;28;20310;-64
2022/11/17 10:04:52;;;;;;;7.97;5.83;;;5.50;99.90;;;;;;5046715;28;20289;-64
2022/11/17 10:07:22;;;;;;;10.70;5.63;;;5.50;99.90;;;;;;5032502;28;20850;-65
2022/11/17 10:09:52;;;;;;;7.50;5.57;;;5.50;99.90;;;;;;5041253;28;20562;-64
2022/11/17 10:12:23;;;;;;;9.83;5.93;;;5.50;99.90;;;;;;5044760;28;20296;-65
2022/11/17 10:14:50;;;;;;;7.47;5.60;;;5.50;99.90;;;;;;5046376;28;20295;-64
2022/11/17 10:17:17;;;;;;;9.00;5.50;;;5.50;99.90;;;;;;5018544;28;20307;-64
2022/11/17 10:19:45;;;;;;;8.73;5.93;;;5.50;99.90;;;;;;5043501;28;20224;-64
2022/11/17 10:22:34;;;;;;;8.23;5.87;;;5.60;99.90;;;;;;5034481;28;20219;-64
2022/11/17 10:25:01;;;;;;;8.57;6.13;;;5.50;99.90;;;;;;5033993;28;20215;-63
2022/11/17 10:27:30;;;;;;;7.27;5.17;;;5.50;99.90;;;;;;5051478;28;20225;-63
2022/11/17 10:30:02;;;;;;;10.00;5.83;;;5.60;99.90;;;;;;5045889;28;21275;-64
2022/11/17 10:32:31;;;;;;;8.37;5.80;;;5.60;99.90;;;;;;5014591;28;20695;-64
2022/11/17 10:35:13;;;;;;;10.30;6.20;;;5.50;99.90;;;;;;5044856;28;20978;-63
2022/11/17 10:37:44;;;;;;;7.13;5.13;;;5.50;99.90;;;;;;5040163;28;20212;-64
2022/11/17 10:40:19;;;;;;;7.57;5.57;;;5.60;99.90;;;;;;5034655;28;20310;-64
2022/11/17 10:42:56;;;;;;;7.47;5.37;;;5.60;99.90;;;;;;5047001;28;20228;-64
2022/11/17 10:45:23;;;;;;;5.87;4.73;;;5.60;99.90;;;;;;5047636;28;20644;-64
2022/11/17 10:47:51;;;;;;;6.67;4.93;;;5.60;99.90;;;;;;5021007;28;20212;-64
2022/11/17 10:50:26;;;;;;;10.60;4.97;;;5.60;99.90;;;;;;5046824;28;20208;-63
2022/11/17 10:53:14;;;;;;;9.07;5.73;;;5.60;99.90;;;;;;5037172;28;20208;-64
2022/11/17 10:55:42;;;;;;;6.97;5.20;;;5.60;99.90;;;;;;5027549;28;20225;-63
2022/11/17 10:58:19;;;;;;;8.43;5.47;;;5.60;99.90;;;;;;5049722;28;20291;-63
2022/11/17 11:00:53;;;;;;;6.67;4.40;;;5.70;99.90;;;;;;5041678;28;20312;-63
2022/11/17 11:03:22;;;;;;;8.13;5.30;;;5.60;99.90;;;;;;5047836;28;20199;-63
2022/11/17 11:06:02;;;;;;;10.57;5.10;;;5.70;99.90;;;;;;5016478;28;21245;-64
2022/11/17 11:08:49;;;;;;;5.27;4.40;;;5.70;99.90;;;;;;5035449;28;20290;-63
2022/11/17 11:11:29;;;;;;;6.97;4.77;;;5.60;99.90;;;;;;5046505;28;20363;-63
2022/11/17 11:13:58;;;;;;;6.53;4.77;;;5.70;99.90;;;;;;5047659;28;20277;-63
2022/11/17 11:16:29;;;;;;;6.33;4.63;;;5.70;99.90;;;;;;5051826;28;20248;-63
2022/11/17 11:18:57;;;;;;;6.40;4.57;;;5.60;99.90;;;;;;5020362;28;20228;-63
2022/11/17 11:21:41;;;;;;;6.10;4.37;;;5.70;99.90;;;;;;5048872;28;20445;-63
2022/11/17 11:24:19;;;;;;;6.33;4.53;;;5.60;99.90;;;;;;5017700;28;20347;-63
2022/11/17 11:26:57;;;;;;;6.53;4.90;;;5.70;99.90;;;;;;5016861;28;20263;-65
2022/11/17 11:29:33;;;;;;;7.90;4.37;;;5.70;99.90;;;;;;5034420;28;20208;-64
2022/11/17 11:32:19;;;;;;;7.10;4.80;;;5.70;99.90;;;;;;5044423;28;20303;-65
2022/11/17 11:35:18;;;;;;;7.83;4.90;;;5.70;99.90;;;;;;5023340;28;20231;-65
2022/11/17 11:37:52;;;;;;;8.30;5.00;;;5.70;99.90;;;;;;5045116;28;20291;-65
2022/11/17 11:40:26;;;;;;;9.50;4.67;;;5.70;99.90;;;;;;5023393;28;20761;-65
2022/11/17 11:42:57;;;;;;;6.13;4.50;;;5.70;99.90;;;;;;5046223;28;20825;-65
2022/11/17 11:45:41;;;;;;;5.80;4.17;;;5.70;99.90;;;;;;5046890;28;20280;-64
2022/11/17 11:48:17;;;;;;;6.23;4.43;;;5.70;99.90;;;;;;5048215;28;20818;-65
2022/11/17 11:50:52;;;;;;;5.30;3.80;;;5.80;99.90;;;;;;5017796;28;20209;-65
2022/11/17 11:53:28;;;;;;;6.33;4.10;;;5.80;99.90;;;;;;5046688;28;20199;-64
2022/11/17 11:56:10;;;;;;;5.87;4.20;;;5.80;99.90;;;;;;5032084;28;20247;-66
2022/11/17 11:58:44;;;;;;;7.63;4.07;;;5.90;99.90;;;;;;5048227;28;20331;-65
2022/11/17 12:01:13;;;;;;;5.33;4.17;;;5.80;99.90;;;;;;5037341;28;20340;-65
2022/11/17 12:03:48;;;;;;;6.33;3.57;;;5.90;99.90;;;;;;5050777;28;20197;-65
2022/11/17 12:09:28;;;;;;;5.17;3.60;;;5.90;99.90;;;;;;5015243;28;20205;-64
2022/11/17 12:12:00;;;;;;;4.93;3.23;;;5.90;99.90;;;;;;5021909;28;20264;-65
2022/11/17 12:14:29;;;;;;;5.00;3.57;;;5.90;99.90;;;;;;5039553;28;20225;-64
2022/11/17 12:17:04;;;;;;;4.90;3.30;;;5.90;99.90;;;;;;5040574;28;22907;-64
2022/11/17 12:19:51;;;;;;;5.07;3.47;;;6.00;99.90;;;;;;5050120;28;20382;-63
2022/11/17 12:22:42;;;;;;;4.03;2.97;;;6.00;99.90;;;;;;5024711;28;20228;-64
2022/11/17 12:25:17;;;;;;;4.97;3.10;;;6.00;99.90;;;;;;5053236;28;20898;-65
2022/11/17 12:27:49;;;;;;;3.77;3.20;;;6.00;99.90;;;;;;5029565;28;20762;-65
2022/11/17 12:30:52;;;;;;;5.70;3.20;;;6.00;99.90;;;;;;5044413;28;20212;-64
2022/11/17 12:33:20;;;;;;;3.43;2.40;;;6.10;99.90;;;;;;5040146;28;20887;-64
2022/11/17 12:36:25;;;;;;;3.80;3.00;;;6.10;99.90;;;;;;5048328;28;20228;-64
2022/11/17 12:38:52;;;;;;;3.73;2.80;;;6.10;99.90;;;;;;5031185;28;20288;-64
2022/11/17 12:41:53;;;;;;;3.90;2.40;;;6.10;99.90;;;;;;5040227;28;20310;-64
2022/11/17 12:44:57;;;;;;;4.20;3.20;;;6.10;99.90;;;;;;5039433;28;20235;-64
2022/11/17 12:47:26;;;;;;;2.87;2.57;;;6.00;99.90;;;;;;5052842;28;20575;-65
2022/11/17 12:50:26;;;;;;;5.63;3.23;;;6.00;99.90;;;;;;5035725;28;20483;-64
2022/11/17 12:53:06;;;;;;;4.33;3.00;;;6.00;99.90;;;;;;5016597;28;20225;-64
2022/11/17 12:55:51;;;;;;;4.13;2.80;;;6.10;99.90;;;;;;5033286;28;20330;-65
2022/11/17 12:58:25;;;;;;;4.03;3.27;;;6.00;99.90;;;;;;5034588;28;20218;-65
2022/11/17 13:01:04;;;;;;;4.00;3.00;;;6.10;99.90;;;;;;5013440;28;20294;-64
2022/11/17 13:03:41;;;;;;;3.20;2.60;;;6.10;99.90;;;;;;5039277;28;20311;-65
2022/11/17 13:06:10;;;;;;;3.80;2.87;;;6.10;99.90;;;;;;5018227;28;20257;-64
2022/11/17 13:08:36;;;;;;;3.60;2.57;;;6.10;99.90;;;;;;5012706;28;20212;-64
2022/11/17 13:11:10;;;;;;;2.97;2.47;;;6.10;99.90;;;;;;5045882;28;20225;-64
2022/11/17 13:13:37;;;;;;;2.90;2.60;;;6.10;99.90;;;;;;5016335;28;20369;-64
2022/11/17 13:16:11;;;;;;;3.17;2.53;;;6.10;99.90;;;;;;5020739;28;20224;-65
2022/11/17 13:18:41;;;;;;;3.60;2.87;;;6.10;99.90;;;;;;5049096;28;21008;-64
2022/11/17 13:21:27;;;;;;;3.63;2.73;;;6.10;99.90;;;;;;5035700;28;20971;-64
2022/11/17 13:23:54;;;;;;;4.00;2.40;;;6.10;99.90;;;;;;5019614;28;20280;-64
2022/11/17 13:26:23;;;;;;;4.00;3.07;;;6.20;99.90;;;;;;5038750;28;21152;-64
2022/11/17 13:29:03;;;;;;;4.63;3.27;;;6.10;99.90;;;;;;5025168;28;20200;-64
2022/11/17 13:31:32;;;;;;;3.10;2.60;;;6.20;99.90;;;;;;5023291;28;20830;-63
2022/11/17 13:34:04;;;;;;;2.87;2.50;;;6.10;99.90;;;;;;5045897;28;20265;-64
2022/11/17 13:36:32;;;;;;;3.97;2.83;;;6.10;99.90;;;;;;5033260;28;20279;-65
2022/11/17 13:39:00;;;;;;;3.10;2.63;;;6.20;99.90;;;;;;5010398;28;20216;-65
2022/11/17 13:41:38;;;;;;;3.63;2.70;;;6.10;99.90;;;;;;5032831;28;20228;-65
2022/11/17 13:44:07;;;;;;;4.90;2.80;;;6.10;99.90;;;;;;5023234;28;20237;-65
2022/11/17 13:46:37;;;;;;;4.10;2.53;;;6.10;99.90;;;;;;5016992;28;21742;-65